Time;durP1;ratioP1;P1;durP2;ratioP2;P2;SDS_P1;SDS_P2;PMS_P1;PMS_P2;Temp;Humidity;BMP_temperature;BMP_pressure;BME280_temperature;BME280_humidity;BME280_pressure;Samples;Min_cycle;Max_cycle;Signal;HPM_P1;HPM_P2
2023/03/22 00:02:08;;;;;;;4.38;1.80;;;;;;;;;;5066773;28;20104;-85
2023/03/22 00:04:34;;;;;;;4.13;1.90;;;;;;;;;;5067218;28;20571;-85
2023/03/22 00:06:59;;;;;;;6.70;1.90;;;;;;;;;;5051511;28;20394;-85
2023/03/22 00:09:25;;;;;;;4.70;1.80;;;;;;;;;;5066836;28;20029;-86
2023/03/22 00:11:50;;;;;;;2.72;1.67;;;;;;;;;;5062546;28;20120;-85
2023/03/22 00:14:19;;;;;;;2.70;1.80;;;;;;;;;;5065179;28;20028;-85
2023/03/22 00:16:45;;;;;;;3.17;1.90;;;;;;;;;;5064249;28;20040;-85
2023/03/22 00:19:11;;;;;;;2.72;1.70;;;;;;;;;;5066097;28;20033;-85
2023/03/22 00:21:36;;;;;;;5.80;1.90;;;;;;;;;;5061776;28;20036;-85
2023/03/22 00:24:02;;;;;;;3.33;1.98;;;;;;;;;;5064193;28;20045;-84
2023/03/22 00:26:27;;;;;;;6.38;1.75;;;;;;;;;;5064133;28;20044;-85
2023/03/22 00:28:52;;;;;;;4.43;1.80;;;;;;;;;;5063487;28;20033;-86
2023/03/22 00:31:18;;;;;;;4.82;1.80;;;;;;;;;;5064549;28;20043;-85
2023/03/22 00:33:44;;;;;;;3.80;1.70;;;;;;;;;;5067297;28;20040;-85
2023/03/22 00:36:10;;;;;;;3.85;1.60;;;;;;;;;;5052439;28;20028;-84
2023/03/22 00:38:37;;;;;;;3.17;1.70;;;;;;;;;;5066721;28;20112;-85
2023/03/22 00:41:16;;;;;;;4.40;1.38;;;;;;;;;;5069910;28;20444;-86
2023/03/22 00:43:44;;;;;;;4.18;1.73;;;;;;;;;;5067061;28;20033;-85
2023/03/22 00:46:11;;;;;;;6.95;1.70;;;;;;;;;;5068339;28;20036;-85
2023/03/22 00:48:36;;;;;;;2.97;1.58;;;;;;;;;;5066615;28;20492;-86
2023/03/22 00:51:02;;;;;;;1.70;1.40;;;;;;;;;;5068554;28;20048;-86
2023/03/22 00:53:31;;;;;;;2.63;1.60;;;;;;;;;;5068823;28;20115;-86
2023/03/22 00:55:57;;;;;;;4.10;1.67;;;;;;;;;;5072353;28;20503;-85
2023/03/22 00:58:24;;;;;;;2.88;1.65;;;;;;;;;;5071862;28;20050;-85
2023/03/22 01:00:50;;;;;;;3.00;1.80;;;;;;;;;;5068996;28;20100;-85
2023/03/22 01:03:16;;;;;;;5.00;1.50;;;;;;;;;;5053828;28;20033;-86
2023/03/22 01:05:45;;;;;;;3.97;1.63;;;;;;;;;;5069228;28;20032;-86
2023/03/22 01:08:11;;;;;;;5.93;1.60;;;;;;;;;;5052223;28;20044;-85
2023/03/22 01:10:39;;;;;;;3.47;1.90;;;;;;;;;;5053820;28;20028;-86
2023/03/22 01:13:06;;;;;;;2.65;1.50;;;;;;;;;;5068351;28;20096;-85
2023/03/22 01:15:32;;;;;;;1.83;1.50;;;;;;;;;;5054291;28;20032;-86
2023/03/22 01:17:57;;;;;;;3.20;1.50;;;;;;;;;;5067605;28;20067;-86
2023/03/22 01:20:24;;;;;;;3.33;1.52;;;;;;;;;;5070853;28;20043;-86
2023/03/22 01:22:50;;;;;;;2.25;1.60;;;;;;;;;;5068746;28;20029;-86
2023/03/22 01:25:16;;;;;;;2.83;1.50;;;;;;;;;;5069399;28;20040;-86
2023/03/22 01:27:41;;;;;;;4.18;1.35;;;;;;;;;;5068254;28;20028;-85
2023/03/22 01:30:08;;;;;;;5.70;1.50;;;;;;;;;;5068722;28;20043;-86
2023/03/22 01:32:35;;;;;;;2.05;1.50;;;;;;;;;;5067956;28;20598;-85
2023/03/22 01:35:01;;;;;;;2.83;1.55;;;;;;;;;;5067683;28;20092;-86
2023/03/22 01:37:29;;;;;;;2.60;1.40;;;;;;;;;;5069066;28;20370;-87
2023/03/22 01:39:55;;;;;;;2.53;1.30;;;;;;;;;;5067339;28;20040;-86
2023/03/22 01:42:22;;;;;;;2.30;1.50;;;;;;;;;;5069765;28;20115;-84
2023/03/22 01:45:17;;;;;;;4.97;1.40;;;;;;;;;;5067375;28;20036;-85
2023/03/22 01:47:48;;;;;;;4.10;1.40;;;;;;;;;;5066983;28;20033;-86
2023/03/22 01:50:15;;;;;;;2.00;1.40;;;;;;;;;;5070586;28;20033;-84
2023/03/22 01:52:43;;;;;;;4.78;1.60;;;;;;;;;;5070069;28;20508;-86
2023/03/22 01:55:17;;;;;;;2.35;1.50;;;;;;;;;;5089228;23;20068;-86
2023/03/22 01:57:45;;;;;;;3.28;1.70;;;;;;;;;;5060696;28;20033;-84
2023/03/22 02:00:19;;;;;;;4.03;1.77;;;;;;;;;;5065894;28;20504;-84
2023/03/22 02:03:06;;;;;;;2.42;1.35;;;;;;;;;;5047217;28;20032;-84
2023/03/22 02:05:36;;;;;;;3.75;1.70;;;;;;;;;;5062902;28;20101;-85
2023/03/22 02:08:03;;;;;;;2.30;1.50;;;;;;;;;;5060970;28;20028;-83
2023/03/22 02:10:42;;;;;;;5.38;1.45;;;;;;;;;;5060002;28;20070;-84
2023/03/22 02:13:19;;;;;;;6.05;2.45;;;;;;;;;;5064593;28;20119;-86
2023/03/22 02:16:35;;;;;;;2.65;1.45;;;;;;;;;;5060992;28;20035;-82
2023/03/22 02:19:09;;;;;;;3.33;1.60;;;;;;;;;;4986931;28;20412;-86
2023/03/22 02:21:49;;;;;;;6.13;1.90;;;;;;;;;;5054680;28;20056;-85
2023/03/22 02:24:24;;;;;;;3.00;1.55;;;;;;;;;;5042725;28;20029;-85
2023/03/22 02:27:27;;;;;;;4.15;1.70;;;;;;;;;;5044811;28;20072;-85
2023/03/22 02:30:01;;;;;;;2.28;1.70;;;;;;;;;;5074314;28;20037;-86
2023/03/22 02:32:55;;;;;;;7.53;2.28;;;;;;;;;;5063749;28;20032;-85
2023/03/22 02:35:37;;;;;;;4.20;1.88;;;;;;;;;;5070787;28;20125;-85
2023/03/22 02:38:03;;;;;;;3.25;1.90;;;;;;;;;;5064816;28;20033;-85
2023/03/22 02:40:31;;;;;;;3.88;1.90;;;;;;;;;;5066729;28;20038;-84
2023/03/22 02:43:05;;;;;;;5.90;1.90;;;;;;;;;;5064157;28;20040;-85
2023/03/22 02:45:38;;;;;;;6.93;1.80;;;;;;;;;;5067322;28;20526;-87
2023/03/22 02:48:19;;;;;;;3.22;1.80;;;;;;;;;;5065685;28;20044;-85
2023/03/22 02:50:59;;;;;;;4.05;1.70;;;;;;;;;;5065535;28;20090;-85
2023/03/22 02:53:42;;;;;;;4.20;1.80;;;;;;;;;;5069689;28;20102;-82
2023/03/22 02:56:24;;;;;;;2.67;1.73;;;;;;;;;;5060253;28;20029;-82
2023/03/22 02:58:53;;;;;;;3.22;1.70;;;;;;;;;;5061238;28;20049;-84
2023/03/22 03:01:39;;;;;;;2.20;1.65;;;;;;;;;;5062177;28;20515;-85
2023/03/22 03:04:31;;;;;;;4.38;1.50;;;;;;;;;;5059951;28;20481;-83
2023/03/22 03:07:06;;;;;;;3.22;2.13;;;;;;;;;;5051584;28;20057;-82
2023/03/22 03:09:32;;;;;;;3.72;1.90;;;;;;;;;;5065386;28;20032;-85
2023/03/22 03:11:58;;;;;;;2.95;1.63;;;;;;;;;;5063408;28;20043;-82
2023/03/22 03:14:30;;;;;;;4.28;1.80;;;;;;;;;;5063714;28;20025;-84
2023/03/22 03:17:11;;;;;;;4.50;1.70;;;;;;;;;;5043660;28;20124;-85
2023/03/22 03:20:06;;;;;;;5.78;2.00;;;;;;;;;;5067322;28;20713;-85
2023/03/22 03:22:58;;;;;;;2.10;1.50;;;;;;;;;;5077150;28;20036;-85
2023/03/22 03:25:32;;;;;;;3.30;1.70;;;;;;;;;;5075969;28;20478;-84
2023/03/22 03:28:08;;;;;;;5.78;1.80;;;;;;;;;;5065016;28;20036;-85
2023/03/22 03:30:45;;;;;;;2.72;1.90;;;;;;;;;;5062367;28;20116;-84
2023/03/22 03:33:19;;;;;;;2.17;1.52;;;;;;;;;;5062261;28;20090;-85
2023/03/22 03:35:48;;;;;;;;;;;;;;;;;;5059326;28;20041;-83
2023/03/22 03:38:18;;;;;;;4.30;1.40;;;;;;;;;;5061304;28;20315;-85
2023/03/22 03:40:51;;;;;;;2.85;1.73;;;;;;;;;;5060325;28;20060;-84
2023/03/22 03:43:18;;;;;;;3.53;1.80;;;;;;;;;;5072106;28;20067;-84
2023/03/22 03:45:44;;;;;;;2.20;1.50;;;;;;;;;;5048902;28;20127;-85
2023/03/22 03:48:16;;;;;;;3.85;1.80;;;;;;;;;;5049148;28;20584;-84
2023/03/22 03:50:43;;;;;;;4.30;1.67;;;;;;;;;;5047612;28;20029;-83
2023/03/22 03:53:10;;;;;;;3.20;1.70;;;;;;;;;;5071221;28;20055;-83
2023/03/22 03:55:36;;;;;;;3.55;1.70;;;;;;;;;;5062032;28;20049;-85
2023/03/22 03:58:02;;;;;;;2.30;1.60;;;;;;;;;;5061373;28;20029;-83
2023/03/22 04:00:28;;;;;;;3.80;1.70;;;;;;;;;;5045474;28;20127;-84
2023/03/22 04:03:12;;;;;;;2.08;1.50;;;;;;;;;;5064524;28;20132;-86
2023/03/22 04:05:58;;;;;;;4.90;1.90;;;;;;;;;;5062211;28;20570;-84
2023/03/22 04:08:25;;;;;;;2.45;1.63;;;;;;;;;;5066933;28;20067;-84
2023/03/22 04:10:51;;;;;;;2.60;1.65;;;;;;;;;;5065395;28;20037;-85
2023/03/22 04:13:20;;;;;;;2.70;1.63;;;;;;;;;;5066501;28;20504;-85
2023/03/22 04:15:51;;;;;;;2.90;1.95;;;;;;;;;;5063844;28;20123;-85
2023/03/22 04:18:18;;;;;;;3.33;1.60;;;;;;;;;;5066651;28;20039;-84
2023/03/22 04:20:45;;;;;;;5.07;1.80;;;;;;;;;;5063820;28;20029;-83
2023/03/22 04:23:11;;;;;;;4.53;1.80;;;;;;;;;;5067377;28;20063;-86
2023/03/22 04:25:37;;;;;;;5.07;1.60;;;;;;;;;;5063116;28;20408;-86
2023/03/22 04:28:08;;;;;;;2.33;1.77;;;;;;;;;;5063955;28;20041;-83
2023/03/22 04:30:35;;;;;;;3.20;1.70;;;;;;;;;;5068317;28;20032;-85
2023/03/22 04:33:21;;;;;;;7.15;1.92;;;;;;;;;;5067111;28;20045;-82
2023/03/22 04:36:09;;;;;;;3.40;1.92;;;;;;;;;;5065765;28;20045;-87
2023/03/22 04:38:43;;;;;;;4.97;1.90;;;;;;;;;;5066532;28;20033;-85
2023/03/22 04:41:15;;;;;;;2.95;1.98;;;;;;;;;;5052947;28;20033;-87
2023/03/22 04:43:45;;;;;;;2.50;1.90;;;;;;;;;;5065977;28;20441;-84
2023/03/22 04:46:13;;;;;;;4.25;1.90;;;;;;;;;;5069304;28;20036;-85
2023/03/22 04:48:47;;;;;;;2.25;1.70;;;;;;;;;;5070532;28;20036;-85
2023/03/22 04:51:14;;;;;;;6.85;2.05;;;;;;;;;;5068316;28;20032;-87
2023/03/22 04:53:50;;;;;;;4.93;2.10;;;;;;;;;;5073172;28;20052;-82
2023/03/22 04:56:16;;;;;;;3.40;2.10;;;;;;;;;;5074577;28;20104;-84
2023/03/22 04:58:44;;;;;;;4.50;1.75;;;;;;;;;;5064322;28;20040;-83
2023/03/22 05:01:13;;;;;;;3.92;2.60;;;;;;;;;;5065525;28;20036;-83
2023/03/22 05:03:41;;;;;;;5.53;2.50;;;;;;;;;;5063692;28;20029;-83
2023/03/22 05:06:08;;;;;;;4.05;2.45;;;;;;;;;;5066425;28;20036;-85
2023/03/22 05:08:47;;;;;;;2.80;2.17;;;;;;;;;;5049624;28;20082;-83
2023/03/22 05:11:18;;;;;;;3.33;2.00;;;;;;;;;;5047700;28;20032;-83
2023/03/22 05:13:54;;;;;;;7.28;2.00;;;;;;;;;;5065838;28;20380;-83
2023/03/22 05:16:20;;;;;;;3.78;1.80;;;;;;;;;;5065326;28;20039;-86
2023/03/22 05:18:53;;;;;;;3.45;1.95;;;;;;;;;;5066425;28;20033;-85
2023/03/22 05:21:27;;;;;;;3.38;2.00;;;;;;;;;;5064312;28;20109;-84
2023/03/22 05:23:56;;;;;;;4.68;1.73;;;;;;;;;;5068029;28;20100;-84
2023/03/22 05:26:25;;;;;;;2.80;1.80;;;;;;;;;;5050572;28;20029;-85
2023/03/22 05:28:52;;;;;;;4.63;1.70;;;;;;;;;;5047193;28;20036;-84
2023/03/22 05:31:28;;;;;;;3.60;1.90;;;;;;;;;;5066753;28;20414;-85
2023/03/22 05:34:00;;;;;;;4.47;1.80;;;;;;;;;;5066495;28;20551;-84
2023/03/22 05:36:31;;;;;;;4.05;1.90;;;;;;;;;;5065980;28;20564;-83
2023/03/22 05:39:08;;;;;;;3.17;1.70;;;;;;;;;;5065424;28;20064;-86
2023/03/22 05:41:34;;;;;;;4.90;1.92;;;;;;;;;;5065833;28;20497;-85
2023/03/22 05:44:00;;;;;;;4.55;2.05;;;;;;;;;;5065879;28;20039;-81
2023/03/22 05:46:26;;;;;;;3.10;1.88;;;;;;;;;;5067377;28;20037;-84
2023/03/22 05:49:17;;;;;;;5.15;2.28;;;;;;;;;;5069041;28;20541;-83
2023/03/22 05:51:43;;;;;;;5.93;3.10;;;;;;;;;;5065653;28;20043;-85
2023/03/22 05:54:11;;;;;;;14.13;5.00;;;;;;;;;;5071365;28;20028;-82
2023/03/22 05:56:44;;;;;;;4.13;2.60;;;;;;;;;;5063881;28;20109;-86
2023/03/22 05:59:10;;;;;;;5.47;2.10;;;;;;;;;;5062921;28;20033;-84
2023/03/22 06:01:35;;;;;;;4.45;2.13;;;;;;;;;;5062546;28;20037;-83
2023/03/22 06:04:11;;;;;;;3.33;2.00;;;;;;;;;;5060365;28;20035;-84
2023/03/22 06:06:49;;;;;;;3.67;1.88;;;;;;;;;;5059898;28;20687;-84
2023/03/22 06:09:30;;;;;;;3.03;2.20;;;;;;;;;;5061606;28;20555;-84
2023/03/22 06:11:57;;;;;;;4.10;1.90;;;;;;;;;;5061120;28;20377;-84
2023/03/22 06:14:23;;;;;;;4.50;1.90;;;;;;;;;;5076589;28;20016;-81
2023/03/22 06:17:04;;;;;;;2.22;1.75;;;;;;;;;;5066176;28;20024;-84
2023/03/22 06:19:30;;;;;;;5.03;1.70;;;;;;;;;;5065071;28;20046;-83
2023/03/22 06:21:57;;;;;;;3.97;1.80;;;;;;;;;;5064801;28;20029;-81
2023/03/22 06:24:26;;;;;;;3.20;1.60;;;;;;;;;;5065078;28;20029;-84
2023/03/22 06:26:52;;;;;;;2.65;1.70;;;;;;;;;;5065370;28;20175;-84
2023/03/22 06:29:17;;;;;;;3.05;2.13;;;;;;;;;;5068334;28;20032;-84
2023/03/22 06:31:43;;;;;;;3.10;1.92;;;;;;;;;;5064696;28;20029;-83
2023/03/22 06:34:09;;;;;;;8.20;1.80;;;;;;;;;;5067303;28;20029;-84
2023/03/22 06:36:38;;;;;;;4.45;2.25;;;;;;;;;;5047530;28;20036;-85
2023/03/22 06:39:08;;;;;;;4.07;2.03;;;;;;;;;;5068393;28;20472;-85
2023/03/22 06:41:34;;;;;;;2.75;1.98;;;;;;;;;;5050863;28;20058;-84
2023/03/22 06:44:00;;;;;;;3.55;2.00;;;;;;;;;;5068320;28;20040;-84
2023/03/22 06:46:42;;;;;;;3.47;1.90;;;;;;;;;;5068854;28;20374;-82
2023/03/22 06:49:18;;;;;;;3.15;2.17;;;;;;;;;;5066889;28;20503;-84
2023/03/22 06:51:44;;;;;;;3.17;2.10;;;;;;;;;;5048648;28;20074;-83
2023/03/22 06:54:11;;;;;;;4.80;2.20;;;;;;;;;;5066994;28;20119;-83
2023/03/22 06:56:37;;;;;;;5.03;2.30;;;;;;;;;;5070170;28;20108;-82
2023/03/22 06:59:02;;;;;;;4.35;2.20;;;;;;;;;;5067972;28;20056;-83
2023/03/22 07:01:28;;;;;;;7.95;2.22;;;;;;;;;;5063929;28;20105;-83
2023/03/22 07:03:53;;;;;;;3.17;2.00;;;;;;;;;;5067547;28;20029;-85
2023/03/22 07:06:21;;;;;;;6.25;2.20;;;;;;;;;;5063452;28;20384;-82
2023/03/22 07:08:49;;;;;;;4.30;2.20;;;;;;;;;;5064944;28;20060;-81
2023/03/22 07:11:18;;;;;;;4.03;1.90;;;;;;;;;;5064491;28;20020;-83
2023/03/22 07:13:48;;;;;;;3.75;1.92;;;;;;;;;;5048395;28;20626;-82
2023/03/22 07:16:18;;;;;;;3.40;1.80;;;;;;;;;;5060490;28;20046;-84
2023/03/22 07:18:49;;;;;;;3.22;1.92;;;;;;;;;;5078399;28;20029;-85
2023/03/22 07:21:15;;;;;;;6.85;1.88;;;;;;;;;;5046533;28;20058;-86
2023/03/22 07:23:45;;;;;;;3.95;1.92;;;;;;;;;;5063325;28;20029;-85
2023/03/22 07:26:14;;;;;;;4.50;1.75;;;;;;;;;;5060086;28;20388;-84
2023/03/22 07:28:43;;;;;;;6.38;1.70;;;;;;;;;;5070582;28;20009;-83
2023/03/22 07:31:12;;;;;;;8.13;2.13;;;;;;;;;;5067195;28;20557;-85
2023/03/22 07:33:44;;;;;;;4.35;1.95;;;;;;;;;;5066624;28;20533;-83
2023/03/22 07:36:10;;;;;;;3.80;2.10;;;;;;;;;;5064867;28;20064;-83
2023/03/22 07:38:36;;;;;;;3.30;2.13;;;;;;;;;;5066543;28;20037;-84
2023/03/22 07:41:06;;;;;;;3.80;2.22;;;;;;;;;;5067302;28;20082;-85
2023/03/22 07:43:52;;;;;;;4.47;2.00;;;;;;;;;;5071321;28;20025;-84
2023/03/22 07:46:20;;;;;;;3.90;1.83;;;;;;;;;;5070332;28;20489;-83
2023/03/22 07:49:03;;;;;;;3.95;2.10;;;;;;;;;;5072523;28;20040;-83
2023/03/22 07:51:57;;;;;;;6.13;2.40;;;;;;;;;;5059582;28;20049;-84
2023/03/22 07:54:23;;;;;;;7.32;2.28;;;;;;;;;;5072574;28;20451;-86
2023/03/22 07:56:49;;;;;;;3.15;2.20;;;;;;;;;;5090205;23;20075;-87
2023/03/22 07:59:15;;;;;;;2.95;1.70;;;;;;;;;;5068998;28;20040;-87
2023/03/22 08:01:42;;;;;;;3.90;2.03;;;;;;;;;;5017890;28;20048;-86
2023/03/22 08:04:21;;;;;;;4.13;1.80;;;;;;;;;;5034258;28;20037;-85
2023/03/22 08:06:59;;;;;;;4.55;1.90;;;;;;;;;;5031129;28;20037;-85
2023/03/22 08:09:26;;;;;;;3.30;1.70;;;;;;;;;;5030700;28;20037;-86
2023/03/22 08:11:52;;;;;;;3.30;1.60;;;;;;;;;;5031722;28;20057;-86
2023/03/22 08:14:17;;;;;;;8.13;2.00;;;;;;;;;;5043068;28;20034;-88
2023/03/22 08:16:43;;;;;;;4.72;1.75;;;;;;;;;;5037148;28;20049;-86
2023/03/22 08:19:12;;;;;;;3.42;1.80;;;;;;;;;;5038347;28;20042;-87
2023/03/22 08:21:40;;;;;;;3.55;1.90;;;;;;;;;;5031704;28;20053;-89
2023/03/22 08:24:11;;;;;;;5.50;2.20;;;;;;;;;;5028744;28;20049;-87
2023/03/22 08:26:50;;;;;;;4.28;2.90;;;;;;;;;;5036316;28;20100;-87
2023/03/22 08:29:26;;;;;;;4.75;1.80;;;;;;;;;;5029799;28;20067;-88
2023/03/22 08:31:52;;;;;;;3.55;1.80;;;;;;;;;;5027599;28;20067;-87
2023/03/22 08:34:19;;;;;;;4.82;1.70;;;;;;;;;;5030875;28;20042;-87
2023/03/22 08:36:45;;;;;;;3.90;1.70;;;;;;;;;;5028079;28;20030;-87
2023/03/22 08:39:11;;;;;;;3.38;1.73;;;;;;;;;;5048095;28;20033;-86
2023/03/22 08:41:59;;;;;;;2.60;1.58;;;;;;;;;;5047701;28;20580;-87
2023/03/22 08:44:26;;;;;;;5.25;1.50;;;;;;;;;;5029783;28;20056;-87
2023/03/22 08:46:52;;;;;;;3.47;1.70;;;;;;;;;;5029264;28;20064;-87
2023/03/22 08:49:18;;;;;;;2.75;1.50;;;;;;;;;;5045712;28;20045;-87
2023/03/22 08:51:50;;;;;;;2.20;1.40;;;;;;;;;;5026942;28;20029;-89
2023/03/22 08:54:35;;;;;;;3.03;1.50;;;;;;;;;;5046893;28;20450;-87
2023/03/22 08:57:03;;;;;;;2.60;1.38;;;;;;;;;;5051214;28;20045;-88
2023/03/22 08:59:48;;;;;;;3.03;1.42;;;;;;;;;;5034976;28;20504;-87
2023/03/22 09:02:23;;;;;;;2.72;1.45;;;;;;;;;;5038598;28;20039;-86
2023/03/22 09:04:50;;;;;;;2.05;1.30;;;;;;;;;;5029229;28;20129;-87
2023/03/22 09:07:19;;;;;;;3.67;1.45;;;;;;;;;;5046395;28;20514;-88
2023/03/22 09:09:51;;;;;;;5.28;1.30;;;;;;;;;;5046921;28;20037;-87
2023/03/22 09:12:17;;;;;;;3.35;1.40;;;;;;;;;;5028361;28;20037;-87
2023/03/22 09:14:45;;;;;;;2.95;1.25;;;;;;;;;;5035089;28;20033;-87
2023/03/22 09:17:11;;;;;;;2.40;1.65;;;;;;;;;;5036998;28;20095;-87
2023/03/22 09:19:36;;;;;;;2.95;1.30;;;;;;;;;;5036432;28;20044;-87
2023/03/22 09:22:02;;;;;;;3.47;1.58;;;;;;;;;;5035718;28;20041;-88
2023/03/22 09:24:37;;;;;;;2.80;1.52;;;;;;;;;;5034740;28;20033;-85
2023/03/22 09:27:03;;;;;;;2.42;1.27;;;;;;;;;;5036163;28;20033;-86
2023/03/22 09:29:29;;;;;;;1.95;1.30;;;;;;;;;;5035708;28;20518;-86
2023/03/22 09:31:54;;;;;;;3.95;1.45;;;;;;;;;;5036598;28;20033;-86
2023/03/22 09:34:25;;;;;;;3.45;1.50;;;;;;;;;;5035657;28;20128;-86
2023/03/22 09:36:51;;;;;;;4.13;1.45;;;;;;;;;;5035341;28;20518;-85
2023/03/22 09:39:21;;;;;;;2.30;1.30;;;;;;;;;;5035965;28;20025;-85
2023/03/22 09:42:01;;;;;;;1.60;1.30;;;;;;;;;;5051570;28;20036;-86
2023/03/22 09:44:35;;;;;;;10.35;1.88;;;;;;;;;;5035708;28;20076;-85
2023/03/22 09:47:04;;;;;;;4.28;1.33;;;;;;;;;;5035937;28;20416;-86
2023/03/22 09:49:38;;;;;;;2.63;1.30;;;;;;;;;;5052641;28;20041;-86
2023/03/22 09:52:10;;;;;;;1.75;1.30;;;;;;;;;;5035722;28;20029;-86
2023/03/22 09:54:37;;;;;;;3.63;1.60;;;;;;;;;;5037326;28;20037;-86
2023/03/22 09:57:23;;;;;;;2.08;1.33;;;;;;;;;;5032074;28;20052;-86
2023/03/22 09:59:59;;;;;;;3.35;1.50;;;;;;;;;;5024827;28;20099;-86
2023/03/22 10:02:51;;;;;;;4.05;1.65;;;;;;;;;;5036776;28;20045;-85
2023/03/22 10:05:48;;;;;;;3.13;1.98;;;;;;;;;;5036167;28;20033;-87
2023/03/22 10:08:13;;;;;;;2.58;1.48;;;;;;;;;;5037245;28;20101;-86
2023/03/22 10:10:42;;;;;;;3.88;1.40;;;;;;;;;;5051900;28;20513;-85
2023/03/22 10:13:18;;;;;;;4.93;1.52;;;;;;;;;;5038041;28;20500;-86
2023/03/22 10:15:54;;;;;;;2.67;1.60;;;;;;;;;;5028447;28;20069;-86
2023/03/22 10:18:31;;;;;;;2.05;1.40;;;;;;;;;;5025611;28;20040;-86
2023/03/22 10:21:04;;;;;;;2.83;1.70;;;;;;;;;;5030581;28;20037;-86
2023/03/22 10:23:42;;;;;;;3.00;1.90;;;;;;;;;;5039881;23;20098;-86
2023/03/22 10:26:18;;;;;;;3.25;1.67;;;;;;;;;;5043940;28;20506;-87
2023/03/22 10:28:48;;;;;;;2.80;1.83;;;;;;;;;;5029936;28;20030;-86
2023/03/22 10:31:20;;;;;;;4.47;2.00;;;;;;;;;;5046880;28;20056;-86
2023/03/22 10:33:56;;;;;;;2.67;1.55;;;;;;;;;;5023980;28;20043;-86
2023/03/22 10:36:29;;;;;;;2.53;1.75;;;;;;;;;;5024429;23;20043;-85
2023/03/22 10:39:09;;;;;;;2.55;1.70;;;;;;;;;;4970536;28;20039;-83
2023/03/22 10:41:35;;;;;;;3.15;1.77;;;;;;;;;;4968190;28;20039;-83
2023/03/22 10:44:04;;;;;;;4.00;1.48;;;;;;;;;;4967224;28;20060;-83
2023/03/22 10:46:37;;;;;;;3.45;1.90;;;;;;;;;;4974690;28;20046;-84
2023/03/22 10:49:03;;;;;;;3.83;1.60;;;;;;;;;;4975840;28;20476;-83
2023/03/22 10:51:50;;;;;;;3.80;1.90;;;;;;;;;;4986182;28;20046;-84
2023/03/22 10:54:20;;;;;;;2.60;1.67;;;;;;;;;;4968128;28;20090;-84
2023/03/22 10:56:46;;;;;;;4.07;1.90;;;;;;;;;;4977869;28;20424;-85
2023/03/22 10:59:43;;;;;;;3.40;1.70;;;;;;;;;;4973730;28;20511;-83
2023/03/22 11:02:26;;;;;;;3.72;1.52;;;;;;;;;;4962839;28;20031;-83
2023/03/22 11:05:04;;;;;;;2.38;1.70;;;;;;;;;;4965205;28;20047;-82
2023/03/22 11:07:32;;;;;;;3.63;1.80;;;;;;;;;;4958914;28;20040;-81
2023/03/22 11:10:07;;;;;;;3.00;1.60;;;;;;;;;;4989941;28;20035;-83
2023/03/22 11:12:38;;;;;;;6.20;1.52;;;;;;;;;;4971904;28;20042;-82
2023/03/22 11:15:05;;;;;;;2.47;1.65;;;;;;;;;;4970003;28;20030;-84
2023/03/22 11:17:31;;;;;;;2.75;1.60;;;;;;;;;;4966786;28;20038;-85
2023/03/22 11:20:00;;;;;;;7.40;2.03;;;;;;;;;;4967685;28;20062;-84
2023/03/22 11:22:32;;;;;;;3.05;1.70;;;;;;;;;;4956987;28;20113;-84
2023/03/22 11:24:58;;;;;;;2.90;1.80;;;;;;;;;;4972641;28;20043;-83
2023/03/22 11:27:27;;;;;;;3.75;1.60;;;;;;;;;;4940386;29;20130;-84
2023/03/22 11:29:57;;;;;;;2.58;1.73;;;;;;;;;;4957679;28;20039;-83
2023/03/22 11:32:26;;;;;;;2.95;2.00;;;;;;;;;;4972546;28;20039;-86
2023/03/22 11:35:04;;;;;;;2.83;1.77;;;;;;;;;;4956136;29;20405;-84
2023/03/22 11:37:30;;;;;;;3.20;1.90;;;;;;;;;;4957509;28;20503;-85
2023/03/22 11:40:00;;;;;;;3.35;1.67;;;;;;;;;;4957848;28;20039;-84
2023/03/22 11:42:26;;;;;;;4.32;1.70;;;;;;;;;;4957535;28;20050;-84
2023/03/22 11:44:55;;;;;;;3.45;1.90;;;;;;;;;;4957322;28;20032;-83
2023/03/22 11:47:24;;;;;;;3.70;1.80;;;;;;;;;;4957961;28;20094;-82
2023/03/22 11:49:51;;;;;;;4.47;2.17;;;;;;;;;;4958163;28;20043;-85
2023/03/22 11:52:21;;;;;;;3.80;1.83;;;;;;;;;;4956981;29;20034;-84
2023/03/22 11:54:48;;;;;;;2.53;1.80;;;;;;;;;;4973690;28;20114;-84
2023/03/22 11:57:19;;;;;;;7.32;1.80;;;;;;;;;;4958072;28;20411;-85
2023/03/22 11:59:47;;;;;;;2.80;1.60;;;;;;;;;;4963527;28;20082;-83
2023/03/22 12:02:33;;;;;;;4.95;2.20;;;;;;;;;;4978683;28;20040;-84
2023/03/22 12:05:21;;;;;;;4.43;2.17;;;;;;;;;;4967057;28;20097;-85
2023/03/22 12:07:52;;;;;;;3.40;2.03;;;;;;;;;;4979552;28;20042;-84
2023/03/22 12:10:27;;;;;;;3.25;1.98;;;;;;;;;;4968860;28;20137;-83
2023/03/22 12:12:57;;;;;;;2.55;1.80;;;;;;;;;;4965054;28;20106;-82
2023/03/22 12:15:30;;;;;;;4.50;2.00;;;;;;;;;;4972653;28;20062;-82
2023/03/22 12:18:07;;;;;;;4.93;2.00;;;;;;;;;;4972001;28;20045;-83
2023/03/22 12:20:53;;;;;;;6.13;1.92;;;;;;;;;;4991395;28;20035;-83
2023/03/22 12:23:22;;;;;;;4.78;1.90;;;;;;;;;;4973310;28;20035;-82
2023/03/22 12:26:14;;;;;;;2.63;1.77;;;;;;;;;;4956629;28;20043;-82
2023/03/22 12:28:45;;;;;;;6.47;1.90;;;;;;;;;;4970751;28;20042;-83
2023/03/22 12:31:26;;;;;;;2.88;1.83;;;;;;;;;;4975778;28;20412;-85
2023/03/22 12:33:58;;;;;;;4.80;2.00;;;;;;;;;;4964839;28;20035;-84
2023/03/22 12:36:43;;;;;;;3.55;2.00;;;;;;;;;;4969194;28;20086;-84
2023/03/22 12:39:18;;;;;;;3.20;1.80;;;;;;;;;;4972383;28;20050;-85
2023/03/22 12:41:48;;;;;;;4.13;2.08;;;;;;;;;;4994186;28;20389;-84
2023/03/22 12:44:13;;;;;;;2.63;1.88;;;;;;;;;;4969509;28;20058;-85
2023/03/22 12:46:51;;;;;;;2.92;1.95;;;;;;;;;;4966498;28;20039;-84
2023/03/22 12:49:24;;;;;;;4.43;1.70;;;;;;;;;;4965015;28;20051;-85
2023/03/22 12:51:52;;;;;;;3.55;1.70;;;;;;;;;;4973792;28;20038;-85
2023/03/22 12:54:21;;;;;;;3.78;1.83;;;;;;;;;;4980200;28;20086;-84
2023/03/22 12:56:48;;;;;;;3.95;1.90;;;;;;;;;;4979260;28;20098;-84
2023/03/22 12:59:21;;;;;;;4.70;1.90;;;;;;;;;;4979765;28;20039;-82
2023/03/22 13:02:11;;;;;;;2.78;1.88;;;;;;;;;;4967326;28;20121;-83
2023/03/22 13:04:37;;;;;;;5.85;2.17;;;;;;;;;;4979679;28;20093;-82
2023/03/22 13:07:18;;;;;;;3.15;1.90;;;;;;;;;;4978036;28;20559;-82
2023/03/22 13:09:47;;;;;;;5.88;2.28;;;;;;;;;;4976099;28;20050;-82
2023/03/22 13:12:16;;;;;;;2.60;1.85;;;;;;;;;;4972721;28;20090;-82
2023/03/22 13:14:50;;;;;;;4.55;1.73;;;;;;;;;;4975184;28;20407;-83
2023/03/22 13:17:21;;;;;;;5.47;1.90;;;;;;;;;;4974286;28;20043;-83
2023/03/22 13:20:06;;;;;;;3.25;2.00;;;;;;;;;;4972741;28;20043;-84
2023/03/22 13:22:37;;;;;;;3.28;1.88;;;;;;;;;;4972308;28;20035;-82
2023/03/22 13:25:09;;;;;;;4.97;2.03;;;;;;;;;;4968862;28;20039;-82
2023/03/22 13:27:56;;;;;;;3.28;1.90;;;;;;;;;;4965818;28;20050;-85
2023/03/22 13:30:51;;;;;;;4.18;1.90;;;;;;;;;;4982446;28;20042;-84
2023/03/22 13:33:18;;;;;;;3.60;1.90;;;;;;;;;;4974014;28;20031;-84
2023/03/22 13:35:51;;;;;;;4.35;2.20;;;;;;;;;;4965154;28;20154;-84
2023/03/22 13:38:21;;;;;;;3.07;1.90;;;;;;;;;;4977974;28;20042;-84
2023/03/22 13:41:05;;;;;;;3.53;2.00;;;;;;;;;;4976992;28;20483;-84
2023/03/22 13:43:44;;;;;;;3.75;2.15;;;;;;;;;;4966084;28;20089;-85
2023/03/22 13:46:28;;;;;;;5.22;2.22;;;;;;;;;;4967288;28;20026;-84
2023/03/22 13:49:10;;;;;;;;;;;;;;;;;;4986010;28;20166;-84
2023/03/22 13:51:36;;;;;;;4.57;1.83;;;;;;;;;;4973592;28;19924;-85
2023/03/22 13:54:15;;;;;;;3.40;2.10;;;;;;;;;;4976045;28;20102;-85
2023/03/22 13:56:43;;;;;;;3.72;1.92;;;;;;;;;;4980099;28;20042;-84
2023/03/22 13:59:09;;;;;;;4.00;2.10;;;;;;;;;;4964768;28;20530;-83
2023/03/22 14:01:49;;;;;;;3.10;2.00;;;;;;;;;;4975691;28;20570;-83
2023/03/22 14:04:21;;;;;;;3.42;2.13;;;;;;;;;;4979634;28;20043;-84
2023/03/22 14:06:53;;;;;;;5.03;2.13;;;;;;;;;;4976714;28;20126;-83
2023/03/22 14:09:32;;;;;;;6.32;2.15;;;;;;;;;;4988507;28;20500;-84
2023/03/22 14:12:06;;;;;;;3.78;2.08;;;;;;;;;;4977311;28;20054;-84
2023/03/22 14:14:34;;;;;;;;;;;;;;;;;;4990489;28;20034;-84
2023/03/22 14:17:10;;;;;;;4.55;1.92;;;;;;;;;;4974102;28;19945;-84
2023/03/22 14:19:37;;;;;;;3.75;1.83;;;;;;;;;;4971364;28;20035;-84
2023/03/22 14:22:07;;;;;;;4.05;2.40;;;;;;;;;;4968478;28;20304;-83
2023/03/22 14:24:35;;;;;;;4.25;2.00;;;;;;;;;;4963783;28;20039;-83
2023/03/22 14:27:00;;;;;;;4.40;2.20;;;;;;;;;;4962372;28;20057;-84
2023/03/22 14:29:39;;;;;;;4.72;2.20;;;;;;;;;;4990776;28;20422;-83
2023/03/22 14:32:05;;;;;;;3.58;2.10;;;;;;;;;;4977345;28;20058;-84
2023/03/22 14:34:37;;;;;;;4.18;2.28;;;;;;;;;;4961333;28;20069;-82
2023/03/22 14:37:07;;;;;;;6.78;2.53;;;;;;;;;;4961791;28;20026;-82
2023/03/22 14:39:45;;;;;;;3.55;2.38;;;;;;;;;;4986184;28;20093;-84
2023/03/22 14:42:29;;;;;;;3.85;2.10;;;;;;;;;;4968842;28;20062;-84
2023/03/22 14:44:58;;;;;;;5.25;2.20;;;;;;;;;;4972750;28;20034;-85
2023/03/22 14:47:32;;;;;;;4.30;2.15;;;;;;;;;;4975172;28;20126;-85
2023/03/22 14:50:03;;;;;;;3.42;2.47;;;;;;;;;;4961945;28;20039;-84
2023/03/22 14:52:32;;;;;;;5.55;2.30;;;;;;;;;;4968224;28;20113;-85
2023/03/22 14:54:59;;;;;;;4.40;2.28;;;;;;;;;;4962920;28;20570;-85
2023/03/22 14:57:32;;;;;;;4.32;1.98;;;;;;;;;;4971229;28;20026;-84
2023/03/22 15:00:00;;;;;;;4.78;2.55;;;;;;;;;;4972642;28;20110;-82
2023/03/22 15:02:41;;;;;;;5.72;2.40;;;;;;;;;;4969389;28;20105;-84
2023/03/22 15:05:11;;;;;;;6.32;2.60;;;;;;;;;;4967325;28;20093;-83
2023/03/22 15:08:07;;;;;;;6.45;2.63;;;;;;;;;;4963595;28;20619;-84
2023/03/22 15:10:35;;;;;;;3.70;2.30;;;;;;;;;;4960184;28;20090;-84
2023/03/22 15:13:02;;;;;;;3.90;2.40;;;;;;;;;;4959981;28;20465;-82